Time;durP1;ratioP1;P1;durP2;ratioP2;P2;SDS_P1;SDS_P2;PMS_P1;PMS_P2;Temp;Humidity;BMP_temperature;BMP_pressure;BME280_temperature;BME280_humidity;BME280_pressure;Samples;Min_cycle;Max_cycle;Signal;HPM_P1;HPM_P2
2022/06/08 00:02:27;;;;;;;0.98;0.98;;;;;;;;;;1782148;79;26279;-51
2022/06/08 00:04:55;;;;;;;1.10;1.10;;;;;;;;;;1784933;79;26301;-51
2022/06/08 00:07:22;;;;;;;1.00;1.00;;;;;;;;;;1782935;79;26298;-51
2022/06/08 00:09:49;;;;;;;1.00;1.00;;;;;;;;;;1785574;79;26409;-49
2022/06/08 00:12:17;;;;;;;1.22;1.22;;;;;;;;;;1785269;79;26380;-51
2022/06/08 00:14:45;;;;;;;1.00;1.00;;;;;;;;;;1786284;79;26291;-55
2022/06/08 00:17:13;;;;;;;0.90;0.90;;;;;;;;;;1783777;79;26255;-51
2022/06/08 00:19:40;;;;;;;0.90;0.90;;;;;;;;;;1783457;79;26325;-50
2022/06/08 00:22:08;;;;;;;0.98;0.98;;;;;;;;;;1785544;79;26291;-49
2022/06/08 00:24:35;;;;;;;0.90;0.90;;;;;;;;;;1786507;79;26820;-55
2022/06/08 00:27:03;;;;;;;0.90;0.90;;;;;;;;;;1784517;79;26310;-54
2022/06/08 00:29:30;;;;;;;1.00;1.00;;;;;;;;;;1785290;78;26577;-50
2022/06/08 00:31:58;;;;;;;1.95;1.00;;;;;;;;;;1782031;79;26362;-49
2022/06/08 00:34:25;;;;;;;0.90;0.90;;;;;;;;;;1785725;79;26298;-53
2022/06/08 00:36:52;;;;;;;1.00;1.00;;;;;;;;;;1781299;79;26380;-50
2022/06/08 00:39:19;;;;;;;0.90;0.90;;;;;;;;;;1786330;80;26346;-50
2022/06/08 00:41:48;;;;;;;0.90;0.90;;;;;;;;;;1784342;79;26291;-54
2022/06/08 00:44:20;;;;;;;1.00;1.00;;;;;;;;;;1786775;80;26370;-54
2022/06/08 00:46:47;;;;;;;0.90;0.90;;;;;;;;;;1783529;79;26343;-55
2022/06/08 00:49:16;;;;;;;1.00;1.00;;;;;;;;;;1790082;79;25839;-55
2022/06/08 00:51:44;;;;;;;1.00;1.00;;;;;;;;;;1777320;79;26907;-55
2022/06/08 00:54:13;;;;;;;0.90;0.90;;;;;;;;;;1785916;80;26243;-50
2022/06/08 00:56:41;;;;;;;1.00;1.00;;;;;;;;;;1787366;79;26336;-49
2022/06/08 00:59:09;;;;;;;0.88;0.88;;;;;;;;;;1780190;78;26818;-52
2022/06/08 01:01:37;;;;;;;1.52;0.93;;;;;;;;;;1783412;79;26448;-52
2022/06/08 01:04:05;;;;;;;0.90;0.90;;;;;;;;;;1789527;79;26771;-53
2022/06/08 01:06:33;;;;;;;0.98;0.98;;;;;;;;;;1783023;79;26351;-53
2022/06/08 01:09:00;;;;;;;0.82;0.82;;;;;;;;;;1785142;79;26341;-54
2022/06/08 01:11:39;;;;;;;1.05;1.00;;;;;;;;;;1786002;79;26247;-51
2022/06/08 01:14:08;;;;;;;1.00;1.00;;;;;;;;;;1784136;79;26842;-50
2022/06/08 01:16:36;;;;;;;1.00;1.00;;;;;;;;;;1780595;79;26290;-49
2022/06/08 01:19:04;;;;;;;0.95;0.95;;;;;;;;;;1783568;79;26283;-52
2022/06/08 01:21:33;;;;;;;0.88;0.88;;;;;;;;;;1786899;79;26739;-53
2022/06/08 01:24:01;;;;;;;1.10;1.10;;;;;;;;;;1788727;79;27220;-54
2022/06/08 01:26:30;;;;;;;0.90;0.90;;;;;;;;;;1788102;79;26303;-50
2022/06/08 01:28:59;;;;;;;1.00;1.00;;;;;;;;;;1784730;79;26396;-49
2022/06/08 01:31:40;;;;;;;1.00;1.00;;;;;;;;;;1782518;79;26701;-52
2022/06/08 01:34:09;;;;;;;1.07;1.07;;;;;;;;;;1782365;79;26321;-55
2022/06/08 01:36:40;;;;;;;1.00;1.00;;;;;;;;;;1784103;79;26954;-53
2022/06/08 01:39:09;;;;;;;1.00;1.00;;;;;;;;;;1783555;80;26403;-49
2022/06/08 01:41:50;;;;;;;1.00;1.00;;;;;;;;;;1771499;79;26399;-51
2022/06/08 01:44:22;;;;;;;1.00;1.00;;;;;;;;;;1787872;79;26334;-50
2022/06/08 01:46:54;;;;;;;1.02;1.02;;;;;;;;;;1781822;80;26287;-54
2022/06/08 01:49:23;;;;;;;3.40;1.10;;;;;;;;;;1784379;79;26954;-52
2022/06/08 01:51:55;;;;;;;1.20;1.20;;;;;;;;;;1786681;79;26298;-55
2022/06/08 01:54:40;;;;;;;1.42;1.10;;;;;;;;;;1786175;79;26338;-53
2022/06/08 01:57:12;;;;;;;1.12;1.12;;;;;;;;;;1783881;79;26353;-53
2022/06/08 01:59:41;;;;;;;1.02;1.02;;;;;;;;;;1783489;78;26695;-54
2022/06/08 02:02:15;;;;;;;1.10;1.10;;;;;;;;;;1778623;79;26731;-54
2022/06/08 02:04:53;;;;;;;1.10;1.10;;;;;;;;;;1774059;79;27338;-52
2022/06/08 02:07:24;;;;;;;1.20;1.20;;;;;;;;;;1777014;79;26294;-50
2022/06/08 02:10:05;;;;;;;1.10;1.10;;;;;;;;;;1782363;79;26894;-52
2022/06/08 02:12:34;;;;;;;1.10;1.10;;;;;;;;;;1780531;79;26306;-51
2022/06/08 02:15:03;;;;;;;1.20;1.20;;;;;;;;;;1781778;79;26740;-51
2022/06/08 02:17:34;;;;;;;1.10;1.10;;;;;;;;;;1778529;80;26746;-51
2022/06/08 02:20:12;;;;;;;1.67;1.30;;;;;;;;;;1778366;79;26368;-53
2022/06/08 02:22:41;;;;;;;1.07;1.07;;;;;;;;;;1779489;79;26408;-51
2022/06/08 02:25:13;;;;;;;1.30;1.30;;;;;;;;;;1776520;79;27141;-53
2022/06/08 02:27:42;;;;;;;1.10;1.10;;;;;;;;;;1783392;79;26364;-50
2022/06/08 02:30:11;;;;;;;1.37;1.37;;;;;;;;;;1786615;79;26405;-55
2022/06/08 02:35:26;;;;;;;1.40;1.40;;;;;;;;;;1764088;79;26334;-51
2022/06/08 02:37:55;;;;;;;1.60;1.60;;;;;;;;;;1788656;79;26303;-52
2022/06/08 02:40:24;;;;;;;1.45;1.35;;;;;;;;;;1770695;79;26318;-49
2022/06/08 02:42:52;;;;;;;3.35;1.47;;;;;;;;;;1779557;80;26357;-53
2022/06/08 02:45:21;;;;;;;1.30;1.30;;;;;;;;;;1835311;77;26354;-49
2022/06/08 02:47:50;;;;;;;1.40;1.40;;;;;;;;;;1829357;77;26260;-50
2022/06/08 02:50:22;;;;;;;1.50;1.50;;;;;;;;;;1829352;77;26355;-50
2022/06/08 02:52:50;;;;;;;1.52;1.40;;;;;;;;;;1817999;77;26872;-50
2022/06/08 02:55:19;;;;;;;1.30;1.30;;;;;;;;;;1809348;77;26355;-50
2022/06/08 02:57:48;;;;;;;1.30;1.30;;;;;;;;;;1829170;77;26811;-54
2022/06/08 03:00:17;;;;;;;2.50;1.50;;;;;;;;;;1813604;77;26261;-50
2022/06/08 03:02:49;;;;;;;1.60;1.60;;;;;;;;;;1821140;77;26269;-51
2022/06/08 03:05:17;;;;;;;1.72;1.62;;;;;;;;;;1817814;77;26356;-53
2022/06/08 03:07:49;;;;;;;1.50;1.50;;;;;;;;;;1822333;77;26257;-51
2022/06/08 03:10:17;;;;;;;1.70;1.70;;;;;;;;;;1816213;77;26877;-53
2022/06/08 03:12:46;;;;;;;1.52;1.52;;;;;;;;;;1813337;77;26252;-54
2022/06/08 03:15:15;;;;;;;1.50;1.50;;;;;;;;;;1816639;77;26249;-54
2022/06/08 03:17:47;;;;;;;1.57;1.57;;;;;;;;;;1822855;78;26319;-50
2022/06/08 03:20:12;;;;;;;1.50;1.40;;;;;;;;;;1805696;77;26267;-52
2022/06/08 03:22:39;;;;;;;1.72;1.62;;;;;;;;;;1803986;77;26377;-53
2022/06/08 03:25:08;;;;;;;1.70;1.70;;;;;;;;;;1809242;77;26761;-50
2022/06/08 03:27:37;;;;;;;1.60;1.60;;;;;;;;;;1810304;77;26884;-49
2022/06/08 03:30:05;;;;;;;2.40;2.20;;;;;;;;;;1819461;77;26784;-48
2022/06/08 03:32:33;;;;;;;1.92;1.60;;;;;;;;;;1818905;77;26272;-51
2022/06/08 03:35:00;;;;;;;2.45;1.72;;;;;;;;;;1822158;77;26753;-52
2022/06/08 03:37:27;;;;;;;1.50;1.50;;;;;;;;;;1832084;77;26331;-48
2022/06/08 03:39:54;;;;;;;1.98;1.80;;;;;;;;;;1821967;77;26277;-50
2022/06/08 03:42:22;;;;;;;1.98;1.87;;;;;;;;;;1821227;77;26320;-55
2022/06/08 03:44:49;;;;;;;1.60;1.60;;;;;;;;;;1821316;77;26292;-49
2022/06/08 03:47:18;;;;;;;1.60;1.60;;;;;;;;;;1819801;77;26261;-49
2022/06/08 03:49:45;;;;;;;1.70;1.70;;;;;;;;;;1821798;77;26826;-50
2022/06/08 03:52:14;;;;;;;1.82;1.80;;;;;;;;;;1821612;77;26310;-53
2022/06/08 03:54:43;;;;;;;1.80;1.70;;;;;;;;;;1820906;77;26280;-53
2022/06/08 03:57:11;;;;;;;1.70;1.70;;;;;;;;;;1822036;77;26323;-50
2022/06/08 03:59:43;;;;;;;2.00;1.90;;;;;;;;;;1821817;77;26915;-53
2022/06/08 04:02:09;;;;;;;1.60;1.60;;;;;;;;;;1821105;77;26325;-53
2022/06/08 04:04:37;;;;;;;2.00;2.00;;;;;;;;;;1818821;77;26273;-52
2022/06/08 04:07:05;;;;;;;2.12;1.85;;;;;;;;;;1816995;77;26297;-52
2022/06/08 04:09:32;;;;;;;1.75;1.75;;;;;;;;;;1821608;77;26330;-52
2022/06/08 04:12:00;;;;;;;1.70;1.70;;;;;;;;;;1823900;77;26237;-50
2022/06/08 04:14:28;;;;;;;1.85;1.75;;;;;;;;;;1821053;77;26680;-52
2022/06/08 04:16:55;;;;;;;1.90;1.82;;;;;;;;;;1822319;77;26241;-51
2022/06/08 04:19:22;;;;;;;3.25;2.70;;;;;;;;;;1818754;77;26206;-55
2022/06/08 04:21:49;;;;;;;1.90;1.80;;;;;;;;;;1819248;77;26307;-49
2022/06/08 04:24:18;;;;;;;1.98;1.87;;;;;;;;;;1821772;77;26285;-55
2022/06/08 04:26:45;;;;;;;1.92;1.92;;;;;;;;;;1820682;77;26346;-51
2022/06/08 04:29:13;;;;;;;1.87;1.87;;;;;;;;;;1821066;77;26280;-55
2022/06/08 04:31:40;;;;;;;2.10;2.00;;;;;;;;;;1822906;77;26268;-50
2022/06/08 04:34:09;;;;;;;1.92;1.92;;;;;;;;;;1822335;77;26858;-53
2022/06/08 04:36:37;;;;;;;1.90;1.90;;;;;;;;;;1818593;77;26892;-54
2022/06/08 04:39:05;;;;;;;1.90;1.90;;;;;;;;;;1816893;77;26325;-55
2022/06/08 04:41:34;;;;;;;1.80;1.70;;;;;;;;;;1816387;77;26269;-55
2022/06/08 04:44:01;;;;;;;2.00;2.00;;;;;;;;;;1821391;77;26210;-54
2022/06/08 04:46:29;;;;;;;2.10;2.10;;;;;;;;;;1826401;77;26258;-49
2022/06/08 04:48:56;;;;;;;1.92;1.75;;;;;;;;;;1812359;77;26261;-50
2022/06/08 04:51:23;;;;;;;2.20;2.02;;;;;;;;;;1825141;78;26339;-51
2022/06/08 04:53:51;;;;;;;2.00;1.90;;;;;;;;;;1829929;77;26335;-53
2022/06/08 04:56:18;;;;;;;2.40;1.98;;;;;;;;;;1810892;77;26731;-54
2022/06/08 04:58:46;;;;;;;2.77;2.00;;;;;;;;;;1816290;77;26257;-51
2022/06/08 05:01:13;;;;;;;2.15;2.00;;;;;;;;;;1813389;77;26255;-53
2022/06/08 05:03:40;;;;;;;2.20;2.10;;;;;;;;;;1810463;78;26261;-53
2022/06/08 05:06:07;;;;;;;2.62;1.90;;;;;;;;;;1816219;77;26458;-54
2022/06/08 05:08:35;;;;;;;2.02;1.92;;;;;;;;;;1817188;79;25996;-54
2022/06/08 05:11:04;;;;;;;2.00;1.90;;;;;;;;;;1813040;77;26309;-53
2022/06/08 05:13:32;;;;;;;2.10;2.05;;;;;;;;;;1812748;77;26350;-54
2022/06/08 05:16:00;;;;;;;2.22;2.12;;;;;;;;;;1815156;77;26698;-53
2022/06/08 05:18:27;;;;;;;3.17;2.00;;;;;;;;;;1811079;77;26268;-55
2022/06/08 05:20:55;;;;;;;2.50;1.90;;;;;;;;;;1803440;77;25812;-53
2022/06/08 05:23:23;;;;;;;2.75;2.55;;;;;;;;;;1808579;77;26347;-47
2022/06/08 05:25:52;;;;;;;4.65;2.60;;;;;;;;;;1809931;77;26265;-50
2022/06/08 05:28:20;;;;;;;3.65;2.20;;;;;;;;;;1793843;77;26292;-48
2022/06/08 05:30:49;;;;;;;4.87;2.72;;;;;;;;;;1804760;78;26361;-50
2022/06/08 05:33:16;;;;;;;4.78;2.65;;;;;;;;;;1802071;77;26403;-50
2022/06/08 05:35:44;;;;;;;3.85;2.87;;;;;;;;;;1829604;77;26269;-49
2022/06/08 05:38:11;;;;;;;3.50;3.30;;;;;;;;;;1814205;77;26720;-47
2022/06/08 05:40:39;;;;;;;4.90;3.30;;;;;;;;;;1813882;77;26308;-52
2022/06/08 05:43:08;;;;;;;3.98;3.60;;;;;;;;;;1797687;77;26382;-49
2022/06/08 05:45:35;;;;;;;5.42;3.33;;;;;;;;;;1807687;77;26753;-46
2022/06/08 05:48:04;;;;;;;4.47;3.52;;;;;;;;;;1816504;77;26337;-51
2022/06/08 05:50:32;;;;;;;6.15;3.67;;;;;;;;;;1816809;77;26257;-51
2022/06/08 05:52:59;;;;;;;3.60;3.37;;;;;;;;;;1827687;77;26749;-53
2022/06/08 05:55:28;;;;;;;24.92;4.47;;;;;;;;;;1817338;77;26829;-50
2022/06/08 05:57:55;;;;;;;4.10;3.30;;;;;;;;;;1816473;77;26241;-49
2022/06/08 06:00:24;;;;;;;4.25;3.47;;;;;;;;;;1816700;77;26253;-51
2022/06/08 06:02:51;;;;;;;5.65;3.30;;;;;;;;;;1835205;76;26353;-55
2022/06/08 06:05:20;;;;;;;8.28;3.37;;;;;;;;;;1829687;76;26276;-50
2022/06/08 06:07:47;;;;;;;3.50;3.30;;;;;;;;;;1806403;77;26233;-50
2022/06/08 06:10:15;;;;;;;5.45;3.55;;;;;;;;;;1822264;77;26795;-53
2022/06/08 06:12:42;;;;;;;4.78;3.50;;;;;;;;;;1816956;77;26353;-52
2022/06/08 06:15:11;;;;;;;3.67;3.35;;;;;;;;;;1810590;78;26264;-48
2022/06/08 06:17:38;;;;;;;3.85;3.55;;;;;;;;;;1804378;77;26681;-52
2022/06/08 06:20:06;;;;;;;4.30;3.42;;;;;;;;;;1803455;77;26893;-51
2022/06/08 06:22:35;;;;;;;3.37;3.10;;;;;;;;;;1804884;77;26221;-47
2022/06/08 06:25:04;;;;;;;4.30;3.37;;;;;;;;;;1815012;77;26284;-47
2022/06/08 06:27:31;;;;;;;3.77;3.47;;;;;;;;;;1810236;77;26915;-53
2022/06/08 06:29:59;;;;;;;3.37;3.17;;;;;;;;;;1807014;77;26288;-54
2022/06/08 06:32:28;;;;;;;3.77;3.58;;;;;;;;;;1801689;77;26264;-53
2022/06/08 06:34:56;;;;;;;3.65;3.35;;;;;;;;;;1814424;77;26273;-52
2022/06/08 06:37:23;;;;;;;3.80;3.22;;;;;;;;;;1814613;77;26343;-51
2022/06/08 06:39:51;;;;;;;3.60;3.40;;;;;;;;;;1816669;77;26401;-55
2022/06/08 06:42:20;;;;;;;3.95;3.25;;;;;;;;;;1815776;77;26323;-48
2022/06/08 06:44:47;;;;;;;3.83;3.40;;;;;;;;;;1809747;77;28180;-50
2022/06/08 06:47:14;;;;;;;3.67;3.37;;;;;;;;;;1808382;77;26347;-52
2022/06/08 06:49:42;;;;;;;3.50;3.30;;;;;;;;;;1815481;77;26855;-47
2022/06/08 06:52:13;;;;;;;3.40;3.10;;;;;;;;;;1825501;77;26744;-51
2022/06/08 06:54:41;;;;;;;3.80;3.55;;;;;;;;;;1790265;77;26293;-49
2022/06/08 06:57:09;;;;;;;3.60;3.30;;;;;;;;;;1828285;77;26243;-47
2022/06/08 06:59:38;;;;;;;3.45;3.25;;;;;;;;;;1821238;77;26269;-48
2022/06/08 07:02:13;;;;;;;3.70;3.45;;;;;;;;;;1821244;77;26230;-48
2022/06/08 07:04:41;;;;;;;3.17;3.08;;;;;;;;;;1812976;77;26272;-49
2022/06/08 07:07:08;;;;;;;3.92;3.62;;;;;;;;;;1811787;77;26268;-46
2022/06/08 07:09:36;;;;;;;3.50;3.30;;;;;;;;;;1816947;77;26304;-52
2022/06/08 07:12:03;;;;;;;3.37;3.17;;;;;;;;;;1812186;77;26269;-50
2022/06/08 07:14:31;;;;;;;3.67;3.40;;;;;;;;;;1812714;77;26770;-49
2022/06/08 07:16:58;;;;;;;3.45;3.35;;;;;;;;;;1818305;77;26249;-51
2022/06/08 07:19:25;;;;;;;3.72;3.50;;;;;;;;;;1814189;77;26257;-52
2022/06/08 07:21:53;;;;;;;3.60;3.37;;;;;;;;;;1808092;78;26346;-53
2022/06/08 07:24:25;;;;;;;3.80;3.50;;;;;;;;;;1800851;77;27438;-49
2022/06/08 07:26:52;;;;;;;11.93;4.28;;;;;;;;;;1817510;77;26365;-53
2022/06/08 07:29:20;;;;;;;5.97;4.62;;;;;;;;;;1813032;77;26351;-52
2022/06/08 07:31:47;;;;;;;8.23;5.12;;;;;;;;;;1805831;77;26270;-51
2022/06/08 07:34:15;;;;;;;8.08;5.22;;;;;;;;;;1812622;77;26874;-52
2022/06/08 07:36:44;;;;;;;10.72;4.92;;;;;;;;;;1811540;77;26772;-50
2022/06/08 07:39:14;;;;;;;12.60;5.00;;;;;;;;;;1808142;77;26686;-51
2022/06/08 07:41:42;;;;;;;12.80;4.97;;;;;;;;;;1815550;78;26768;-50
2022/06/08 07:44:10;;;;;;;12.68;4.58;;;;;;;;;;1814176;78;26217;-49
2022/06/08 07:46:38;;;;;;;8.83;4.20;;;;;;;;;;1812335;78;26293;-54
2022/06/08 07:51:55;;;;;;;5.22;4.20;;;;;;;;;;1827425;77;26398;-53
2022/06/08 07:54:24;;;;;;;5.90;4.12;;;;;;;;;;1793313;77;26306;-54
2022/06/08 07:56:53;;;;;;;8.55;4.22;;;;;;;;;;1817124;77;26335;-53
2022/06/08 07:59:22;;;;;;;7.45;4.03;;;;;;;;;;1820162;77;26706;-52
2022/06/08 08:01:50;;;;;;;5.47;4.10;;;;;;;;;;1810603;77;26791;-54
2022/06/08 08:04:17;;;;;;;5.78;4.03;;;;;;;;;;1814753;77;26289;-52
2022/06/08 08:06:45;;;;;;;8.80;4.10;;;;;;;;;;1810564;78;26745;-51
2022/06/08 08:09:22;;;;;;;7.37;3.90;;;;;;;;;;1813802;77;26253;-56
2022/06/08 08:11:50;;;;;;;7.42;4.20;;;;;;;;;;1815763;77;26217;-52
2022/06/08 08:14:22;;;;;;;7.20;4.03;;;;;;;;;;1817320;77;26347;-51
2022/06/08 08:16:49;;;;;;;6.92;3.80;;;;;;;;;;1819849;77;26269;-47
2022/06/08 08:19:18;;;;;;;9.53;4.10;;;;;;;;;;1819603;77;26688;-49
2022/06/08 08:21:47;;;;;;;10.70;3.90;;;;;;;;;;1815871;77;26848;-55
2022/06/08 08:24:14;;;;;;;7.62;3.83;;;;;;;;;;1798822;77;26764;-52
2022/06/08 08:26:43;;;;;;;14.13;3.80;;;;;;;;;;1820723;77;26197;-51
2022/06/08 08:29:11;;;;;;;6.15;3.70;;;;;;;;;;1813428;77;26288;-52
2022/06/08 08:31:39;;;;;;;6.95;3.33;;;;;;;;;;1816663;77;26841;-53
2022/06/08 08:34:07;;;;;;;3.65;3.10;;;;;;;;;;1810837;77;26245;-50
2022/06/08 08:36:34;;;;;;;3.80;3.10;;;;;;;;;;1816897;77;26716;-49
2022/06/08 08:39:03;;;;;;;7.28;2.77;;;;;;;;;;1811348;77;26354;-50
2022/06/08 08:44:21;;;;;;;3.75;2.87;;;;;;;;;;1798269;77;26857;-53
2022/06/08 08:46:50;;;;;;;8.10;2.90;;;;;;;;;;1814933;77;26312;-46
2022/06/08 08:49:23;;;;;;;5.75;2.67;;;;;;;;;;1813891;77;26721;-51
2022/06/08 08:51:57;;;;;;;7.92;2.70;;;;;;;;;;1815160;79;26947;-49
2022/06/08 08:54:27;;;;;;;3.90;2.50;;;;;;;;;;1818347;77;26698;-48
2022/06/08 08:57:01;;;;;;;2.92;2.65;;;;;;;;;;1826499;77;26387;-48
2022/06/08 08:59:34;;;;;;;3.12;2.40;;;;;;;;;;1816677;77;26351;-51
2022/06/08 09:02:00;;;;;;;3.72;2.10;;;;;;;;;;1816389;78;26291;-52
2022/06/08 09:04:28;;;;;;;4.05;2.37;;;;;;;;;;1819522;77;26359;-53
2022/06/08 09:06:56;;;;;;;2.58;2.30;;;;;;;;;;1822065;77;26277;-49
2022/06/08 09:09:25;;;;;;;3.10;1.95;;;;;;;;;;1824663;77;26304;-50
2022/06/08 09:11:52;;;;;;;2.05;1.95;;;;;;;;;;1824840;77;26253;-48
2022/06/08 09:14:24;;;;;;;2.35;2.20;;;;;;;;;;1824889;77;26260;-49
2022/06/08 09:16:54;;;;;;;4.30;2.30;;;;;;;;;;1813582;77;26279;-47
2022/06/08 09:19:23;;;;;;;2.92;2.20;;;;;;;;;;1818019;77;26384;-48
2022/06/08 09:21:52;;;;;;;2.42;2.22;;;;;;;;;;1824441;77;26730;-48
2022/06/08 09:24:30;;;;;;;1.80;1.80;;;;;;;;;;1832730;77;26744;-52
2022/06/08 09:26:59;;;;;;;2.47;1.98;;;;;;;;;;1813291;77;26472;-47
2022/06/08 09:29:29;;;;;;;1.95;1.87;;;;;;;;;;1836904;77;26337;-51
2022/06/08 09:31:56;;;;;;;2.15;2.05;;;;;;;;;;1820090;77;26320;-48
2022/06/08 09:34:25;;;;;;;2.30;2.08;;;;;;;;;;1818239;77;26260;-51
2022/06/08 09:37:06;;;;;;;2.37;1.90;;;;;;;;;;1827074;77;26266;-48
2022/06/08 09:39:34;;;;;;;2.15;2.05;;;;;;;;;;1822848;77;26261;-48
2022/06/08 09:42:05;;;;;;;1.90;1.80;;;;;;;;;;1817642;77;26282;-49
2022/06/08 09:44:36;;;;;;;1.65;1.65;;;;;;;;;;1814827;77;26747;-49
2022/06/08 09:52:54;;;;;;;1.75;1.65;;;;;;;;;;1816936;77;26305;-49
2022/06/08 09:55:25;;;;;;;1.72;1.62;;;;;;;;;;1823902;77;26342;-48
2022/06/08 09:57:57;;;;;;;1.70;1.60;;;;;;;;;;1824192;77;26293;-48
2022/06/08 10:00:29;;;;;;;1.60;1.60;;;;;;;;;;1826929;78;26782;-46
2022/06/08 10:03:13;;;;;;;1.72;1.62;;;;;;;;;;1819154;77;26291;-51
2022/06/08 10:05:53;;;;;;;1.80;1.72;;;;;;;;;;1816242;77;26308;-48
2022/06/08 10:08:27;;;;;;;2.15;1.70;;;;;;;;;;1822770;77;26322;-51
2022/06/08 10:11:01;;;;;;;1.52;1.52;;;;;;;;;;1827368;77;26788;-46
2022/06/08 10:13:33;;;;;;;1.40;1.40;;;;;;;;;;1826453;77;26263;-46
2022/06/08 10:16:02;;;;;;;1.62;1.52;;;;;;;;;;1817219;77;26766;-47
2022/06/08 10:18:31;;;;;;;1.60;1.50;;;;;;;;;;1809374;77;26265;-51
2022/06/08 10:21:16;;;;;;;1.47;1.47;;;;;;;;;;1808211;77;26363;-50
2022/06/08 10:23:45;;;;;;;1.50;1.40;;;;;;;;;;1823209;77;26785;-46
2022/06/08 10:26:14;;;;;;;1.70;1.60;;;;;;;;;;1805295;77;26256;-47
2022/06/08 10:28:43;;;;;;;1.37;1.37;;;;;;;;;;1806997;77;26299;-46
2022/06/08 10:31:15;;;;;;;1.37;1.37;;;;;;;;;;1822426;77;26712;-49
2022/06/08 10:33:58;;;;;;;1.30;1.30;;;;;;;;;;1827466;77;26294;-45
2022/06/08 10:36:27;;;;;;;1.30;1.30;;;;;;;;;;1723265;81;26828;-49
2022/06/08 10:38:55;;;;;;;1.27;1.27;;;;;;;;;;1785892;77;26820;-50
2022/06/08 10:44:16;;;;;;;1.30;1.30;;;;;;;;;;1812035;77;26232;-52
2022/06/08 10:46:45;;;;;;;1.42;1.32;;;;;;;;;;1813645;77;26198;-46
2022/06/08 10:49:23;;;;;;;1.30;1.30;;;;;;;;;;1815542;77;26358;-53
2022/06/08 10:52:09;;;;;;;1.20;1.20;;;;;;;;;;1836024;77;26787;-51
2022/06/08 10:54:57;;;;;;;1.10;1.10;;;;;;;;;;1811716;77;26404;-48
2022/06/08 10:57:42;;;;;;;1.92;1.12;;;;;;;;;;1808339;77;26268;-46
2022/06/08 11:00:20;;;;;;;1.10;1.10;;;;;;;;;;1813604;77;26267;-50
2022/06/08 11:02:52;;;;;;;1.57;1.15;;;;;;;;;;1813988;77;26361;-48
2022/06/08 11:05:21;;;;;;;1.10;1.10;;;;;;;;;;1799426;78;26351;-49
2022/06/08 11:08:02;;;;;;;1.00;1.00;;;;;;;;;;1810549;77;26332;-47
2022/06/08 11:10:51;;;;;;;1.50;1.10;;;;;;;;;;1808156;78;26378;-50
2022/06/08 11:13:25;;;;;;;1.00;1.00;;;;;;;;;;1812324;77;26437;-49
2022/06/08 11:15:57;;;;;;;0.90;0.90;;;;;;;;;;1803161;78;26318;-47
2022/06/08 11:18:38;;;;;;;0.90;0.90;;;;;;;;;;1807789;78;26239;-50
2022/06/08 11:21:10;;;;;;;1.00;1.00;;;;;;;;;;1784904;79;26252;-47
2022/06/08 11:23:40;;;;;;;0.93;0.93;;;;;;;;;;1780125;80;26778;-52
2022/06/08 11:26:15;;;;;;;1.00;1.00;;;;;;;;;;1773165;79;26361;-51
2022/06/08 11:28:48;;;;;;;0.88;0.78;;;;;;;;;;1772328;79;26592;-49
2022/06/08 11:31:29;;;;;;;0.90;0.90;;;;;;;;;;1774116;79;26873;-48
2022/06/08 11:34:07;;;;;;;0.90;0.90;;;;;;;;;;1775974;79;26381;-48
2022/06/08 11:36:55;;;;;;;0.90;0.90;;;;;;;;;;1762930;79;26329;-51
2022/06/08 11:39:35;;;;;;;0.80;0.80;;;;;;;;;;1773770;79;26298;-51
2022/06/08 11:42:22;;;;;;;0.80;0.80;;;;;;;;;;1776091;79;26346;-49
2022/06/08 11:44:54;;;;;;;0.90;0.90;;;;;;;;;;1774907;79;26318;-49
2022/06/08 11:47:32;;;;;;;0.60;0.60;;;;;;;;;;1777341;79;26431;-49
2022/06/08 11:50:00;;;;;;;0.62;0.62;;;;;;;;;;1772529;79;26295;-50
2022/06/08 11:52:32;;;;;;;0.80;0.80;;;;;;;;;;1785240;79;26328;-51
2022/06/08 11:55:01;;;;;;;0.80;0.80;;;;;;;;;;1778161;79;26303;-53
2022/06/08 11:57:29;;;;;;;0.70;0.70;;;;;;;;;;1766189;80;26307;-50
2022/06/08 11:59:57;;;;;;;0.85;0.85;;;;;;;;;;1800584;78;26277;-50
2022/06/08 12:02:38;;;;;;;0.80;0.80;;;;;;;;;;1803153;77;26284;-54
2022/06/08 12:05:10;;;;;;;0.80;0.80;;;;;;;;;;1789134;77;26782;-51
2022/06/08 12:07:45;;;;;;;0.70;0.70;;;;;;;;;;1814758;77;26662;-52
2022/06/08 12:10:14;;;;;;;0.70;0.70;;;;;;;;;;1805840;77;26364;-48
2022/06/08 12:12:43;;;;;;;0.78;0.78;;;;;;;;;;1808722;77;26276;-51
2022/06/08 12:15:28;;;;;;;0.80;0.80;;;;;;;;;;1806288;77;26293;-49
2022/06/08 12:17:56;;;;;;;0.88;0.88;;;;;;;;;;1804898;77;26272;-48
2022/06/08 12:20:25;;;;;;;0.78;0.78;;;;;;;;;;1810977;77;26249;-54
2022/06/08 12:22:53;;;;;;;0.78;0.78;;;;;;;;;;1817900;77;26296;-54
2022/06/08 12:25:22;;;;;;;0.80;0.80;;;;;;;;;;1809596;77;26259;-55
2022/06/08 12:28:06;;;;;;;0.70;0.70;;;;;;;;;;1812007;77;26756;-50
2022/06/08 12:30:34;;;;;;;0.80;0.80;;;;;;;;;;1820537;77;26277;-49
2022/06/08 12:33:18;;;;;;;0.70;0.70;;;;;;;;;;1817670;77;26357;-49
2022/06/08 12:35:53;;;;;;;0.90;0.90;;;;;;;;;;1811868;77;26292;-47
2022/06/08 12:38:22;;;;;;;0.90;0.90;;;;;;;;;;1810328;77;26304;-49
2022/06/08 12:41:00;;;;;;;0.90;0.90;;;;;;;;;;1823650;77;26277;-51
2022/06/08 12:43:39;;;;;;;0.90;0.90;;;;;;;;;;1815709;77;27243;-47
2022/06/08 12:46:12;;;;;;;0.70;0.70;;;;;;;;;;1803319;79;26743;-49
2022/06/08 12:48:42;;;;;;;1.00;1.00;;;;;;;;;;1831667;77;26368;-51
2022/06/08 12:51:28;;;;;;;0.80;0.80;;;;;;;;;;1825468;77;26286;-49
2022/06/08 12:53:55;;;;;;;1.00;1.00;;;;;;;;;;1814038;77;26261;-51
2022/06/08 12:56:23;;;;;;;0.82;0.80;;;;;;;;;;1805312;77;26276;-52
2022/06/08 12:58:51;;;;;;;1.00;1.00;;;;;;;;;;1806257;78;26269;-49
2022/06/08 13:01:20;;;;;;;0.88;0.88;;;;;;;;;;1811044;77;26247;-46
2022/06/08 13:03:48;;;;;;;0.93;0.93;;;;;;;;;;1821326;77;26622;-48
2022/06/08 13:06:16;;;;;;;1.12;1.00;;;;;;;;;;1828357;76;26312;-46
2022/06/08 13:08:43;;;;;;;0.90;0.90;;;;;;;;;;1805584;78;26255;-53
2022/06/08 13:11:15;;;;;;;0.80;0.80;;;;;;;;;;1819906;77;26809;-52
2022/06/08 13:13:42;;;;;;;0.90;0.90;;;;;;;;;;1817368;77;26280;-49
2022/06/08 13:16:11;;;;;;;0.90;0.90;;;;;;;;;;1807344;79;26812;-50
2022/06/08 13:18:39;;;;;;;1.12;1.02;;;;;;;;;;1746244;80;26673;-49
2022/06/08 13:21:07;;;;;;;0.98;0.98;;;;;;;;;;1812183;77;26370;-48
2022/06/08 13:23:35;;;;;;;1.00;1.00;;;;;;;;;;1806657;77;26258;-49
2022/06/08 13:26:03;;;;;;;0.85;0.85;;;;;;;;;;1810110;77;26277;-51
2022/06/08 13:28:31;;;;;;;0.90;0.90;;;;;;;;;;1821571;77;26369;-47
2022/06/08 13:31:00;;;;;;;1.00;1.00;;;;;;;;;;1811067;77;26253;-47
2022/06/08 13:36:16;;;;;;;1.02;1.02;;;;;;;;;;1812721;78;26316;-47
2022/06/08 13:38:48;;;;;;;1.00;1.00;;;;;;;;;;1814206;77;26866;-47
2022/06/08 13:41:13;;;;;;;1.00;1.00;;;;;;;;;;1814113;77;26374;-48
2022/06/08 13:43:40;;;;;;;1.05;1.00;;;;;;;;;;1817743;77;26252;-51
2022/06/08 13:46:09;;;;;;;0.90;0.90;;;;;;;;;;1812805;77;26277;-46
2022/06/08 13:48:36;;;;;;;0.90;0.90;;;;;;;;;;1815732;77;26331;-47
2022/06/08 13:51:04;;;;;;;0.90;0.90;;;;;;;;;;1816627;79;26398;-54
2022/06/08 13:53:31;;;;;;;1.10;0.95;;;;;;;;;;1801003;78;26283;-46
2022/06/08 13:56:01;;;;;;;0.90;0.90;;;;;;;;;;1801397;77;26277;-53
2022/06/08 13:58:28;;;;;;;0.90;0.90;;;;;;;;;;1803133;78;26406;-51
2022/06/08 14:00:57;;;;;;;0.98;0.90;;;;;;;;;;1796566;77;26355;-50
2022/06/08 14:03:26;;;;;;;1.07;1.07;;;;;;;;;;1812101;77;26288;-51
2022/06/08 14:14:13;;;;;;;1.07;1.07;;;;;;;;;;1870625;76;26274;-51
2022/06/08 14:16:42;;;;;;;0.90;0.90;;;;;;;;;;1841951;76;26357;-48
2022/06/08 14:19:10;;;;;;;0.90;0.90;;;;;;;;;;1832262;76;26286;-48
2022/06/08 14:21:38;;;;;;;1.20;0.90;;;;;;;;;;1832633;76;26315;-46
2022/06/08 14:24:05;;;;;;;0.80;0.80;;;;;;;;;;1856019;76;26267;-51
2022/06/08 14:26:33;;;;;;;1.12;1.05;;;;;;;;;;1823968;76;26736;-47
2022/06/08 14:29:01;;;;;;;0.90;0.90;;;;;;;;;;1828213;76;26337;-52
2022/06/08 14:31:32;;;;;;;0.80;0.80;;;;;;;;;;1852524;76;26888;-52
2022/06/08 14:33:59;;;;;;;1.07;1.07;;;;;;;;;;1830804;76;26316;-50
2022/06/08 14:36:27;;;;;;;1.00;1.00;;;;;;;;;;1846241;76;26220;-51
2022/06/08 14:38:54;;;;;;;0.90;0.90;;;;;;;;;;1830902;76;26382;-51
2022/06/08 14:41:37;;;;;;;0.80;0.80;;;;;;;;;;1837383;76;26276;-50
2022/06/08 14:43:50;;;;;;;0.93;0.90;;;;;;;;;;1843359;76;26327;-49
2022/06/08 14:46:18;;;;;;;0.95;0.95;;;;;;;;;;1830021;76;26336;-50
2022/06/08 14:48:46;;;;;;;0.90;0.90;;;;;;;;;;1836071;76;26523;-52
2022/06/08 14:51:16;;;;;;;0.80;0.80;;;;;;;;;;1827283;77;26301;-47
2022/06/08 14:53:44;;;;;;;0.90;0.90;;;;;;;;;;1828749;76;26262;-51
2022/06/08 14:56:24;;;;;;;0.70;0.70;;;;;;;;;;1830402;76;26311;-52
2022/06/08 14:58:54;;;;;;;0.80;0.80;;;;;;;;;;1851283;76;26409;-49
2022/06/08 15:01:23;;;;;;;0.80;0.80;;;;;;;;;;1821937;76;26274;-52
2022/06/08 15:03:51;;;;;;;0.80;0.80;;;;;;;;;;1828654;76;26342;-53
2022/06/08 15:06:18;;;;;;;0.75;0.75;;;;;;;;;;1827238;76;26345;-51
2022/06/08 15:08:48;;;;;;;0.75;0.75;;;;;;;;;;1825484;76;26731;-47
2022/06/08 15:14:02;;;;;;;1.57;0.90;;;;;;;;;;1841706;76;26890;-49
2022/06/08 15:16:30;;;;;;;0.80;0.80;;;;;;;;;;1850148;76;26370;-52
2022/06/08 15:18:57;;;;;;;0.75;0.75;;;;;;;;;;1845183;76;26284;-53
2022/06/08 15:21:24;;;;;;;0.70;0.70;;;;;;;;;;1840693;76;26319;-48
2022/06/08 15:23:51;;;;;;;0.70;0.70;;;;;;;;;;1843120;76;26196;-49
2022/06/08 15:26:19;;;;;;;0.70;0.70;;;;;;;;;;1845518;76;26271;-48
2022/06/08 15:28:46;;;;;;;0.65;0.65;;;;;;;;;;1848645;76;26314;-52
2022/06/08 15:31:13;;;;;;;0.70;0.70;;;;;;;;;;1847941;76;26308;-50